createdAt,value
2018-09-09T00:00:58.154Z,14.59
2018-09-09T00:02:07.058Z,14.52
2018-09-09T00:03:15.716Z,14.55
2018-09-09T00:04:24.617Z,14.55
2018-09-09T00:05:33.534Z,14.55
2018-09-09T00:06:42.169Z,14.52
2018-09-09T00:07:50.822Z,14.49
2018-09-09T00:08:59.462Z,14.59
2018-09-09T00:10:08.112Z,14.59
2018-09-09T00:11:16.746Z,14.48
2018-09-09T00:12:25.664Z,14.53
2018-09-09T00:13:34.307Z,14.49
2018-09-09T00:14:43.227Z,14.49
2018-09-09T00:15:52.393Z,14.43
2018-09-09T00:17:01.301Z,14.4
2018-09-09T00:18:09.949Z,14.48
2018-09-09T00:19:18.597Z,14.4
2018-09-09T00:20:27.244Z,14.43
2018-09-09T00:21:35.879Z,14.37
2018-09-09T00:22:44.525Z,14.45
2018-09-09T00:23:53.164Z,14.44
2018-09-09T00:25:01.816Z,14.48
2018-09-09T00:26:10.455Z,14.37
2018-09-09T00:27:19.104Z,14.4
2018-09-09T00:28:28.016Z,14.45
2018-09-09T00:29:36.669Z,14.37
2018-09-09T00:30:45.305Z,14.43
2018-09-09T00:31:53.951Z,14.43
2018-09-09T00:33:02.598Z,14.41
2018-09-09T00:34:11.512Z,14.41
2018-09-09T00:35:20.159Z,14.41
2018-09-09T00:36:28.798Z,14.4
2018-09-09T00:37:37.441Z,14.36
2018-09-09T00:38:46.083Z,14.38
2018-09-09T00:39:54.735Z,14.36
2018-09-09T00:41:03.369Z,14.34
2018-09-09T00:42:12.015Z,14.4
2018-09-09T00:43:20.651Z,14.34
2018-09-09T00:44:29.304Z,14.31
2018-09-09T00:45:37.944Z,14.28
2018-09-09T00:46:46.592Z,14.22
2018-09-09T00:47:55.229Z,14.2
2018-09-09T00:49:03.884Z,14.26
2018-09-09T00:50:12.526Z,14.23
2018-09-09T00:51:21.438Z,14.19
2018-09-09T00:52:30.078Z,14.13
2018-09-09T00:53:38.726Z,14.05
2018-09-09T00:54:47.371Z,14.07
2018-09-09T00:55:56.281Z,14.07
2018-09-09T00:57:04.928Z,14.05
2018-09-09T00:58:13.836Z,13.97
2018-09-09T00:59:22.482Z,13.97
2018-09-09T01:00:31.384Z,13.98
2018-09-09T01:01:40.299Z,13.98
2018-09-09T01:02:48.940Z,13.97
2018-09-09T01:03:57.845Z,13.94
2018-09-09T01:05:06.491Z,14
2018-09-09T01:06:15.145Z,13.98
2018-09-09T01:07:23.785Z,13.95
2018-09-09T01:08:32.432Z,13.98
2018-09-09T01:09:41.344Z,14.03
2018-09-09T01:10:49.995Z,14.03
2018-09-09T01:11:58.636Z,14.03
2018-09-09T01:13:07.279Z,14.04
2018-09-09T01:14:15.924Z,14.07
2018-09-09T01:15:24.828Z,14.05
2018-09-09T01:16:33.740Z,14.04
2018-09-09T01:17:42.385Z,13.97
2018-09-09T01:18:51.298Z,14.08
2018-09-09T01:20:00.208Z,14.08
2018-09-09T01:21:09.399Z,14.08
2018-09-09T01:22:18.312Z,14.04
2018-09-09T01:23:26.955Z,14
2018-09-09T01:24:35.597Z,14.08
2018-09-09T01:25:44.244Z,13.98
2018-09-09T01:26:52.888Z,14.07
2018-09-09T01:28:01.535Z,14.01
2018-09-09T01:29:10.176Z,14.11
2018-09-09T01:30:19.084Z,14.08
2018-09-09T01:31:27.998Z,14.04
2018-09-09T01:32:36.644Z,14.13
2018-09-09T01:33:45.305Z,14.08
2018-09-09T01:34:54.199Z,14.05
2018-09-09T01:36:03.108Z,14.05
2018-09-09T01:37:11.755Z,14.07
2018-09-09T01:38:20.675Z,14.08
2018-09-09T01:39:29.316Z,14.03
2018-09-09T01:40:38.226Z,14.01
2018-09-09T01:41:46.870Z,14.01
2018-09-09T01:42:56.058Z,14.01
2018-09-09T01:44:04.698Z,14.04
2018-09-09T01:45:13.346Z,14.01
2018-09-09T01:46:21.990Z,13.95
2018-09-09T01:47:30.629Z,13.87
2018-09-09T01:48:39.275Z,13.95
2018-09-09T01:49:47.920Z,13.94
2018-09-09T01:50:56.566Z,13.95
2018-09-09T01:52:05.214Z,13.95
2018-09-09T01:53:13.855Z,13.94
2018-09-09T01:54:22.497Z,13.91
2018-09-09T01:55:31.402Z,13.93
2018-09-09T01:56:40.051Z,13.86
2018-09-09T01:57:48.688Z,13.95
2018-09-09T01:58:57.332Z,13.98
2018-09-09T02:00:05.976Z,13.86
2018-09-09T02:01:14.624Z,13.85
2018-09-09T02:02:23.529Z,13.89
2018-09-09T02:03:32.178Z,13.93
2018-09-09T02:04:40.818Z,13.89
2018-09-09T02:05:49.464Z,13.98
2018-09-09T02:06:58.108Z,13.98
2018-09-09T02:08:06.756Z,13.94
2018-09-09T02:09:15.396Z,13.95
2018-09-09T02:10:24.038Z,13.95
2018-09-09T02:11:32.689Z,14.03
2018-09-09T02:12:41.334Z,14.01
2018-09-09T02:13:49.979Z,13.97
2018-09-09T02:14:58.621Z,13.98
2018-09-09T02:16:07.268Z,14.01
2018-09-09T02:17:15.918Z,13.95
2018-09-09T02:18:24.557Z,13.94
2018-09-09T02:19:33.196Z,13.94
2018-09-09T02:20:41.847Z,13.93
2018-09-09T02:21:50.486Z,13.95
2018-09-09T02:22:59.143Z,13.86
2018-09-09T02:24:08.046Z,13.95
2018-09-09T02:25:16.693Z,13.87
2018-09-09T02:26:25.609Z,13.91
2018-09-09T02:27:34.251Z,13.98
2018-09-09T02:28:42.897Z,13.94
2018-09-09T02:29:51.539Z,14
2018-09-09T02:31:00.190Z,13.98
2018-09-09T02:32:09.097Z,14.03
2018-09-09T02:33:17.743Z,13.98
2018-09-09T02:34:26.644Z,13.98
2018-09-09T02:35:35.290Z,14.04
2018-09-09T02:36:44.203Z,14.11
2018-09-09T02:37:53.116Z,14.04
2018-09-09T02:39:01.755Z,14.15
2018-09-09T02:40:10.940Z,14.11
2018-09-09T02:41:19.586Z,14.15
2018-09-09T02:42:28.235Z,14.07
2018-09-09T02:43:36.913Z,14.07
2018-09-09T02:44:45.876Z,14.04
2018-09-09T02:45:54.514Z,14.04
2018-09-09T02:47:03.161Z,14.16
2018-09-09T02:48:11.816Z,14.03
2018-09-09T02:49:20.466Z,14.08
2018-09-09T02:50:29.111Z,14.04
2018-09-09T02:51:37.746Z,14.12
2018-09-09T02:52:46.675Z,14.07
2018-09-09T02:53:55.320Z,14.07
2018-09-09T02:55:03.977Z,14.12
2018-09-09T02:56:12.618Z,14.11
2018-09-09T02:57:21.546Z,14.07
2018-09-09T02:58:30.189Z,14.05
2018-09-09T02:59:39.104Z,14.05
2018-09-09T03:00:48.006Z,14.07
2018-09-09T03:01:56.659Z,14.12
2018-09-09T03:03:05.305Z,14.11
2018-09-09T03:04:14.216Z,14.08
2018-09-09T03:05:22.878Z,14.03
2018-09-09T03:06:32.051Z,14.05
2018-09-09T03:07:40.701Z,14.04
2018-09-09T03:08:49.882Z,14.08
2018-09-09T03:09:58.534Z,14.12
2018-09-09T03:11:07.433Z,14.13
2018-09-09T03:12:16.339Z,14.08
2018-09-09T03:13:24.987Z,14.13
2018-09-09T03:14:33.642Z,14.22
2018-09-09T03:15:42.540Z,14.16
2018-09-09T03:16:51.189Z,14.22
2018-09-09T03:18:00.093Z,14.22
2018-09-09T03:19:09.017Z,14.19
2018-09-09T03:20:17.665Z,14.19
2018-09-09T03:21:26.309Z,14.19
2018-09-09T03:22:35.217Z,14.25
2018-09-09T03:23:43.859Z,14.25
2018-09-09T03:24:52.783Z,14.28
2018-09-09T03:26:01.424Z,14.28
2018-09-09T03:27:10.073Z,14.28
2018-09-09T03:28:18.982Z,14.26
2018-09-09T03:29:27.635Z,14.28
2018-09-09T03:30:36.278Z,14.28
2018-09-09T03:31:44.932Z,14.28
2018-09-09T03:32:53.833Z,14.43
2018-09-09T03:34:02.486Z,14.4
2018-09-09T03:35:11.138Z,14.36
2018-09-09T03:36:20.047Z,14.33
2018-09-09T03:37:28.679Z,14.45
2018-09-09T03:38:37.327Z,14.44
2018-09-09T03:39:45.979Z,14.44
2018-09-09T03:40:54.624Z,14.45
2018-09-09T03:42:03.278Z,14.4
2018-09-09T03:43:12.176Z,14.43
2018-09-09T03:44:20.825Z,14.45
2018-09-09T03:45:29.728Z,14.43
2018-09-09T03:46:38.375Z,14.44
2018-09-09T03:47:47.014Z,14.45
2018-09-09T03:48:55.658Z,14.38
2018-09-09T03:50:04.302Z,14.37
2018-09-09T03:51:12.950Z,14.4
2018-09-09T03:52:21.588Z,14.23
2018-09-09T03:53:30.237Z,14.26
2018-09-09T03:54:38.880Z,14.26
2018-09-09T03:55:47.532Z,14.22
2018-09-09T03:56:56.439Z,14.26
2018-09-09T03:58:05.346Z,14.25
2018-09-09T03:59:14.251Z,14.23
2018-09-09T04:00:22.892Z,14.22
2018-09-09T04:01:31.805Z,14.13
2018-09-09T04:02:40.449Z,14.16
2018-09-09T04:03:49.373Z,14.12
2018-09-09T04:04:58.011Z,14.19
2018-09-09T04:06:06.661Z,14.12
2018-09-09T04:07:15.304Z,14.18
2018-09-09T04:08:24.482Z,14.19
2018-09-09T04:09:33.394Z,14.16
2018-09-09T04:10:42.045Z,14.07
2018-09-09T04:11:50.685Z,14.13
2018-09-09T04:12:59.605Z,14.07
2018-09-09T04:14:08.244Z,14.05
2018-09-09T04:15:17.425Z,14.16
2018-09-09T04:16:26.064Z,14.11
2018-09-09T04:17:34.710Z,14.07
2018-09-09T04:18:43.367Z,14.01
2018-09-09T04:19:52.005Z,14.07
2018-09-09T04:21:00.649Z,14.04
2018-09-09T04:22:09.295Z,14.08
2018-09-09T04:23:17.943Z,14.05
2018-09-09T04:24:26.583Z,14.05
2018-09-09T04:25:35.225Z,14.05
2018-09-09T04:26:44.125Z,14.08
2018-09-09T04:27:52.774Z,14.15
2018-09-09T04:29:01.682Z,14.16
2018-09-09T04:30:10.328Z,14.18
2018-09-09T04:31:18.971Z,14.22
2018-09-09T04:32:27.621Z,14.25
2018-09-09T04:33:36.313Z,14.25
2018-09-09T04:34:45.172Z,14.23
2018-09-09T04:35:54.074Z,14.22
2018-09-09T04:37:02.715Z,14.28
2018-09-09T04:38:11.365Z,14.3
2018-09-09T04:39:20.019Z,14.34
2018-09-09T04:40:29.206Z,14.34
2018-09-09T04:41:38.107Z,14.33
2018-09-09T04:42:47.027Z,14.28
2018-09-09T04:43:55.666Z,14.34
2018-09-09T04:45:04.598Z,14.26
2018-09-09T04:46:13.551Z,14.36
2018-09-09T04:47:22.157Z,14.36
2018-09-09T04:48:30.806Z,14.25
2018-09-09T04:49:39.449Z,14.3
2018-09-09T04:50:48.083Z,14.31
2018-09-09T04:51:56.746Z,14.25
2018-09-09T04:53:05.383Z,14.28
2018-09-09T04:54:14.299Z,14.25
2018-09-09T04:55:22.947Z,14.23
2018-09-09T04:56:31.589Z,14.26
2018-09-09T04:57:40.504Z,14.25
2018-09-09T04:58:49.145Z,14.26
2018-09-09T04:59:58.060Z,14.22
2018-09-09T05:01:06.709Z,14.22
2018-09-09T05:02:15.342Z,14.22
2018-09-09T05:03:23.982Z,14.22
2018-09-09T05:04:32.636Z,14.22
2018-09-09T05:05:41.271Z,14.2
2018-09-09T05:06:49.918Z,14.23
2018-09-09T05:07:58.555Z,14.2
2018-09-09T05:09:07.478Z,14.22
2018-09-09T05:10:16.118Z,14.25
2018-09-09T05:11:24.761Z,14.2
2018-09-09T05:12:33.400Z,14.26
2018-09-09T05:13:42.044Z,14.25
2018-09-09T05:14:50.705Z,14.22
2018-09-09T05:15:59.606Z,14.25
2018-09-09T05:17:08.258Z,14.23
2018-09-09T05:18:16.893Z,14.19
2018-09-09T05:19:25.544Z,14.2
2018-09-09T05:20:34.184Z,14.26
2018-09-09T05:21:43.095Z,14.3
2018-09-09T05:22:51.728Z,14.28
2018-09-09T05:24:00.384Z,14.4
2018-09-09T05:25:09.025Z,14.31
2018-09-09T05:26:17.672Z,14.3
2018-09-09T05:27:26.307Z,14.36
2018-09-09T05:28:34.954Z,14.26
2018-09-09T05:29:43.608Z,14.36
2018-09-09T05:30:52.512Z,14.38
2018-09-09T05:32:01.162Z,14.45
2018-09-09T05:33:10.064Z,14.48
2018-09-09T05:34:18.708Z,14.43
2018-09-09T05:35:27.349Z,14.4
2018-09-09T05:36:36.000Z,14.45
2018-09-09T05:37:44.901Z,14.44
2018-09-09T05:38:53.548Z,14.52
2018-09-09T05:40:02.188Z,14.49
2018-09-09T05:41:10.830Z,14.45
2018-09-09T05:42:19.577Z,14.51
2018-09-09T05:43:28.125Z,14.59
2018-09-09T05:44:36.823Z,14.62
2018-09-09T05:45:45.408Z,14.66
2018-09-09T05:46:54.333Z,14.62
2018-09-09T05:48:03.509Z,14.63
2018-09-09T05:49:12.161Z,14.7
2018-09-09T05:50:21.389Z,14.71
2018-09-09T05:51:30.284Z,14.78
2018-09-09T05:52:38.937Z,14.85
2018-09-09T05:53:47.861Z,14.9
2018-09-09T05:54:56.488Z,14.89
2018-09-09T05:56:05.123Z,14.94
2018-09-09T05:57:13.771Z,14.93
2018-09-09T05:58:22.411Z,14.93
2018-09-09T05:59:31.061Z,14.99
2018-09-09T06:00:39.695Z,15.02
2018-09-09T06:01:48.343Z,15
2018-09-09T06:02:57.256Z,14.97
2018-09-09T06:04:05.910Z,15
2018-09-09T06:05:14.554Z,15.18
2018-09-09T06:06:23.193Z,15.08
2018-09-09T06:07:32.104Z,15.14
2018-09-09T06:08:40.744Z,15.1
2018-09-09T06:09:49.397Z,15.15
2018-09-09T06:10:58.035Z,15.17
2018-09-09T06:12:06.687Z,15.18
2018-09-09T06:13:15.323Z,15.19
2018-09-09T06:14:23.972Z,15.25
2018-09-09T06:15:32.608Z,15.27
2018-09-09T06:16:41.267Z,15.39
2018-09-09T06:17:50.168Z,15.35
2018-09-09T06:18:59.089Z,15.41
2018-09-09T06:20:07.733Z,15.41
2018-09-09T06:21:16.381Z,15.44
2018-09-09T06:22:25.020Z,15.5
2018-09-09T06:23:33.667Z,15.55
2018-09-09T06:24:42.318Z,15.6
2018-09-09T06:25:50.966Z,15.57
2018-09-09T06:26:59.614Z,15.63
2018-09-09T06:28:08.515Z,15.72
2018-09-09T06:29:17.727Z,15.78
2018-09-09T06:30:26.374Z,15.76
2018-09-09T06:31:35.029Z,15.85
2018-09-09T06:32:43.664Z,15.84
2018-09-09T06:33:52.330Z,15.94
2018-09-09T06:35:00.955Z,15.91
2018-09-09T06:36:09.614Z,15.96
2018-09-09T06:37:18.252Z,16.02
2018-09-09T06:38:26.896Z,16.1
2018-09-09T06:39:35.540Z,16.08
2018-09-09T06:40:44.194Z,16.09
2018-09-09T06:41:52.839Z,16.12
2018-09-09T06:43:01.744Z,16.1
2018-09-09T06:44:10.387Z,16.25
2018-09-09T06:45:19.028Z,16.13
2018-09-09T06:46:28.104Z,16.13
2018-09-09T06:47:36.737Z,16.22
2018-09-09T06:48:45.380Z,16.16
2018-09-09T06:49:54.023Z,16.13
2018-09-09T06:51:02.671Z,16.26
2018-09-09T06:52:11.316Z,16.24
2018-09-09T06:53:20.223Z,16.37
2018-09-09T06:54:28.861Z,16.32
2018-09-09T06:55:37.507Z,16.43
2018-09-09T06:56:46.152Z,16.41
2018-09-09T06:57:55.059Z,16.41
2018-09-09T06:59:03.964Z,16.54
2018-09-09T07:00:12.618Z,16.54
2018-09-09T07:01:21.529Z,16.62
2018-09-09T07:02:30.178Z,16.72
2018-09-09T07:03:39.085Z,16.66
2018-09-09T07:04:47.727Z,16.74
2018-09-09T07:05:56.374Z,16.76
2018-09-09T07:07:05.022Z,16.76
2018-09-09T07:08:13.934Z,16.84
2018-09-09T07:09:22.573Z,16.92
2018-09-09T07:10:31.221Z,17.04
2018-09-09T07:11:40.066Z,17.07
2018-09-09T07:12:48.519Z,17.02
2018-09-09T07:13:57.422Z,17.16
2018-09-09T07:15:06.070Z,17.17
2018-09-09T07:16:14.714Z,17.2
2018-09-09T07:17:23.363Z,17.22
2018-09-09T07:18:32.008Z,17.27
2018-09-09T07:19:40.654Z,17.31
2018-09-09T07:20:49.297Z,17.32
2018-09-09T07:21:57.943Z,17.42
2018-09-09T07:23:06.592Z,17.38
2018-09-09T07:24:15.504Z,17.46
2018-09-09T07:25:24.423Z,17.49
2018-09-09T07:26:33.064Z,17.54
2018-09-09T07:27:41.713Z,17.63
2018-09-09T07:28:50.359Z,17.75
2018-09-09T07:29:59.006Z,17.71
2018-09-09T07:31:07.682Z,17.8
2018-09-09T07:32:16.300Z,17.76
2018-09-09T07:33:24.944Z,17.87
2018-09-09T07:34:33.594Z,17.93
2018-09-09T07:35:42.497Z,17.93
2018-09-09T07:36:51.147Z,18.06
2018-09-09T07:38:00.096Z,18.03
2018-09-09T07:39:08.710Z,18
2018-09-09T07:40:17.359Z,18.05
2018-09-09T07:41:26.011Z,18.09
2018-09-09T07:42:34.915Z,18.09
2018-09-09T07:43:43.569Z,18.03
2018-09-09T07:44:52.209Z,18.05
2018-09-09T07:46:01.399Z,17.97
2018-09-09T07:47:10.313Z,18.06
2018-09-09T07:48:18.969Z,18.15
2018-09-09T07:49:27.602Z,18.09
2018-09-09T07:50:36.280Z,18.08
2018-09-09T07:51:45.276Z,18.08
2018-09-09T07:52:53.926Z,18.13
2018-09-09T07:54:02.564Z,18.12
2018-09-09T07:55:11.214Z,18.12
2018-09-09T07:56:19.865Z,18.08
2018-09-09T07:57:28.512Z,18.11
2018-09-09T07:58:37.166Z,18.15
2018-09-09T07:59:45.800Z,18.16
2018-09-09T08:00:54.725Z,18.15
2018-09-09T08:02:03.366Z,18.11
2018-09-09T08:03:12.022Z,18.12
2018-09-09T08:04:20.667Z,18.13
2018-09-09T08:05:29.325Z,18.13
2018-09-09T08:06:37.964Z,18.26
2018-09-09T08:07:46.622Z,18.26
2018-09-09T08:08:55.258Z,18.13
2018-09-09T08:10:03.906Z,18.08
2018-09-09T08:11:12.554Z,18.12
2018-09-09T08:12:21.218Z,18.23
2018-09-09T08:13:29.858Z,18.12
2018-09-09T08:14:38.505Z,18.24
2018-09-09T08:15:47.148Z,18.11
2018-09-09T08:16:55.793Z,18.21
2018-09-09T08:18:04.453Z,18.23
2018-09-09T08:19:13.368Z,18.24
2018-09-09T08:20:22.016Z,18.24
2018-09-09T08:21:30.917Z,18.31
2018-09-09T08:22:39.577Z,18.41
2018-09-09T08:23:48.220Z,18.45
2018-09-09T08:24:56.876Z,18.49
2018-09-09T08:26:05.512Z,18.6
2018-09-09T08:27:14.165Z,18.53
2018-09-09T08:28:23.069Z,18.6
2018-09-09T08:29:31.717Z,18.6
2018-09-09T08:30:40.356Z,18.71
2018-09-09T08:31:49.004Z,18.68
2018-09-09T08:32:57.654Z,18.73
2018-09-09T08:34:06.305Z,18.76
2018-09-09T08:35:14.954Z,18.76
2018-09-09T08:36:23.599Z,18.82
2018-09-09T08:37:32.775Z,18.89
2018-09-09T08:38:41.416Z,18.89
2018-09-09T08:39:50.068Z,18.96
2018-09-09T08:40:58.713Z,19.07
2018-09-09T08:42:07.359Z,19.12
2018-09-09T08:43:16.008Z,19.16
2018-09-09T08:44:24.661Z,19.12
2018-09-09T08:45:33.779Z,19.26
2018-09-09T08:46:42.574Z,19.11
2018-09-09T08:47:51.216Z,19.11
2018-09-09T08:48:59.868Z,19.19
2018-09-09T08:50:08.512Z,19.16
2018-09-09T08:51:17.164Z,19.12
2018-09-09T08:52:25.811Z,19.12
2018-09-09T08:53:34.460Z,19.11
2018-09-09T08:54:43.114Z,19.24
2018-09-09T08:55:51.764Z,19.24
2018-09-09T08:57:00.410Z,19.19
2018-09-09T08:58:09.053Z,19.24
2018-09-09T08:59:17.705Z,19.32
2018-09-09T09:00:26.353Z,19.26
2018-09-09T09:01:35.003Z,19.34
2018-09-09T09:02:43.645Z,19.23
2018-09-09T09:03:52.297Z,19.29
2018-09-09T09:05:00.949Z,19.35
2018-09-09T09:06:09.858Z,19.42
2018-09-09T09:07:18.564Z,19.38
2018-09-09T09:08:27.160Z,19.53
2018-09-09T09:09:36.069Z,19.52
2018-09-09T09:10:44.721Z,19.48
2018-09-09T09:11:53.373Z,19.53
2018-09-09T09:13:02.282Z,19.62
2018-09-09T09:14:10.931Z,19.63
2018-09-09T09:15:19.577Z,19.64
2018-09-09T09:16:28.230Z,19.71
2018-09-09T09:17:37.136Z,19.71
2018-09-09T09:18:45.784Z,19.67
2018-09-09T09:19:54.431Z,19.71
2018-09-09T09:21:03.083Z,19.67
2018-09-09T09:22:11.729Z,19.63
2018-09-09T09:23:20.378Z,19.75
2018-09-09T09:24:29.025Z,19.79
2018-09-09T09:25:37.683Z,19.84
2018-09-09T09:26:46.323Z,19.85
2018-09-09T09:27:54.970Z,19.92
2018-09-09T09:29:03.893Z,20
2018-09-09T09:30:12.798Z,19.92
2018-09-09T09:31:21.451Z,19.93
2018-09-09T09:32:30.098Z,19.94
2018-09-09T09:33:39.010Z,19.93
2018-09-09T09:34:47.651Z,19.97
2018-09-09T09:35:56.303Z,19.93
2018-09-09T09:37:04.950Z,20
2018-09-09T09:38:13.601Z,20.02
2018-09-09T09:39:22.310Z,20.02
2018-09-09T09:40:30.894Z,20.17
2018-09-09T09:41:39.545Z,20.14
2018-09-09T09:42:48.462Z,20.11
2018-09-09T09:43:57.381Z,20.21
2018-09-09T09:45:06.027Z,20.15
2018-09-09T09:46:14.673Z,20.17
2018-09-09T09:47:23.584Z,20.14
2018-09-09T09:48:32.233Z,20.14
2018-09-09T09:49:41.147Z,20.21
2018-09-09T09:50:50.071Z,20.24
2018-09-09T09:51:58.718Z,20.22
2018-09-09T09:53:07.653Z,20.15
2018-09-09T09:54:16.284Z,20.19
2018-09-09T09:55:25.500Z,20.14
2018-09-09T09:56:34.109Z,20.21
2018-09-09T09:57:43.018Z,20.17
2018-09-09T09:58:51.670Z,20.15
2018-09-09T10:00:00.318Z,20.21
2018-09-09T10:01:08.967Z,20.17
2018-09-09T10:02:17.877Z,20.14
2018-09-09T10:03:26.533Z,20.15
2018-09-09T10:04:35.175Z,20.27
2018-09-09T10:05:43.825Z,20.32
2018-09-09T10:06:52.473Z,20.42
2018-09-09T10:08:01.118Z,20.44
2018-09-09T10:09:10.217Z,20.46
2018-09-09T10:10:19.165Z,20.42
2018-09-09T10:11:27.814Z,20.39
2018-09-09T10:12:36.457Z,20.4
2018-09-09T10:13:45.107Z,20.39
2018-09-09T10:14:53.755Z,20.36
2018-09-09T10:16:02.406Z,20.39
2018-09-09T10:17:11.049Z,20.32
2018-09-09T10:18:19.700Z,20.4
2018-09-09T10:19:28.351Z,20.46
2018-09-09T10:20:37.276Z,20.59
2018-09-09T10:21:45.917Z,20.64
2018-09-09T10:22:54.574Z,20.73
2018-09-09T10:24:03.494Z,20.89
2018-09-09T10:25:12.141Z,20.92
2018-09-09T10:26:20.793Z,21.03
2018-09-09T10:27:29.442Z,21.05
2018-09-09T10:28:38.091Z,21.19
2018-09-09T10:29:46.734Z,21.2
2018-09-09T10:30:55.391Z,21.22
2018-09-09T10:32:04.322Z,21.2
2018-09-09T10:33:12.960Z,21.29
2018-09-09T10:34:21.598Z,21.29
2018-09-09T10:35:30.787Z,21.33
2018-09-09T10:36:39.697Z,21.33
2018-09-09T10:37:48.348Z,21.38
2018-09-09T10:38:56.990Z,21.4
2018-09-09T10:40:05.635Z,21.45
2018-09-09T10:41:14.295Z,21.54
2018-09-09T10:42:22.942Z,21.51
2018-09-09T10:43:31.856Z,21.53
2018-09-09T10:44:41.030Z,21.59
2018-09-09T10:45:49.949Z,21.58
2018-09-09T10:46:58.612Z,21.48
2018-09-09T10:48:07.253Z,21.56
2018-09-09T10:49:15.893Z,21.54
2018-09-09T10:50:24.551Z,21.44
2018-09-09T10:51:33.193Z,21.48
2018-09-09T10:52:41.851Z,21.35
2018-09-09T10:53:50.490Z,21.44
2018-09-09T10:54:59.408Z,21.25
2018-09-09T10:56:08.056Z,21.3
2018-09-09T10:57:16.722Z,21.22
2018-09-09T10:58:25.374Z,21.22
2018-09-09T10:59:34.019Z,21.33
2018-09-09T11:00:42.664Z,21.4
2018-09-09T11:01:51.577Z,21.45
2018-09-09T11:03:00.231Z,21.56
2018-09-09T11:04:08.877Z,21.83
2018-09-09T11:05:17.529Z,21.94
2018-09-09T11:06:26.170Z,22.15
2018-09-09T11:07:35.092Z,22.28
2018-09-09T11:08:43.742Z,22.36
2018-09-09T11:09:52.391Z,22.51
2018-09-09T11:11:01.033Z,22.59
2018-09-09T11:12:09.690Z,22.61
2018-09-09T11:13:18.339Z,22.58
2018-09-09T11:14:26.986Z,22.58
2018-09-09T11:15:35.629Z,22.61
2018-09-09T11:16:44.279Z,22.7
2018-09-09T11:17:52.933Z,22.77
2018-09-09T11:19:01.976Z,22.74
2018-09-09T11:20:10.591Z,22.71
2018-09-09T11:21:19.232Z,22.68
2018-09-09T11:22:27.889Z,22.58
2018-09-09T11:23:36.533Z,22.56
2018-09-09T11:24:45.203Z,22.58
2018-09-09T11:25:53.831Z,22.47
2018-09-09T11:27:02.482Z,22.53
2018-09-09T11:28:11.131Z,22.44
2018-09-09T11:29:19.790Z,22.49
2018-09-09T11:30:28.700Z,22.58
2018-09-09T11:31:37.350Z,22.68
2018-09-09T11:32:46.000Z,22.7
2018-09-09T11:33:54.653Z,22.8
2018-09-09T11:35:03.305Z,22.93
2018-09-09T11:36:12.312Z,22.96
2018-09-09T11:37:20.929Z,23.01
2018-09-09T11:38:29.575Z,22.98
2018-09-09T11:39:38.494Z,22.92
2018-09-09T11:40:47.584Z,22.84
2018-09-09T11:41:56.138Z,22.73
2018-09-09T11:43:04.785Z,22.67
2018-09-09T11:44:13.443Z,22.61
2018-09-09T11:45:22.092Z,22.61
2018-09-09T11:46:30.741Z,22.61
2018-09-09T11:47:39.388Z,22.55
2018-09-09T11:48:48.047Z,22.43
2018-09-09T11:49:56.955Z,22.52
2018-09-09T11:51:05.611Z,22.55
2018-09-09T11:52:14.791Z,22.59
2018-09-09T11:53:23.444Z,22.61
2018-09-09T11:54:32.361Z,22.52
2018-09-09T11:55:41.018Z,22.62
2018-09-09T11:56:49.670Z,22.56
2018-09-09T11:57:58.585Z,22.68
2018-09-09T11:59:07.235Z,22.7
2018-09-09T12:00:15.887Z,22.83
2018-09-09T12:01:24.538Z,22.78
2018-09-09T12:02:33.183Z,22.7
2018-09-09T12:03:41.832Z,22.7
2018-09-09T12:04:50.478Z,22.63
2018-09-09T12:05:59.132Z,22.7
2018-09-09T12:07:07.774Z,22.73
2018-09-09T12:08:16.427Z,22.71
2018-09-09T12:09:25.085Z,22.7
2018-09-09T12:10:33.729Z,22.67
2018-09-09T12:11:42.378Z,22.67
2018-09-09T12:12:51.291Z,22.7
2018-09-09T12:13:59.938Z,22.7
2018-09-09T12:15:08.851Z,22.56
2018-09-09T12:16:17.505Z,22.52
2018-09-09T12:17:26.159Z,22.55
2018-09-09T12:18:35.071Z,22.44
2018-09-09T12:19:43.722Z,22.46
2018-09-09T12:20:52.638Z,22.53
2018-09-09T12:22:01.291Z,22.43
2018-09-09T12:23:09.939Z,22.55
2018-09-09T12:24:18.585Z,22.56
2018-09-09T12:25:27.240Z,22.63
2018-09-09T12:26:35.886Z,22.71
2018-09-09T12:27:44.537Z,22.68
2018-09-09T12:28:53.182Z,22.76
2018-09-09T12:30:01.838Z,22.84
2018-09-09T12:31:10.755Z,22.88
2018-09-09T12:32:19.439Z,23.01
2018-09-09T12:33:28.063Z,22.98
2018-09-09T12:34:36.702Z,23.08
2018-09-09T12:35:45.355Z,23.2
2018-09-09T12:36:54.005Z,23.2
2018-09-09T12:38:02.927Z,23.2
2018-09-09T12:39:11.576Z,23.14
2018-09-09T12:40:20.227Z,23.16
2018-09-09T12:41:29.137Z,23.1
2018-09-09T12:42:37.798Z,23.11
2018-09-09T12:43:46.446Z,23.11
2018-09-09T12:44:55.359Z,23.11
2018-09-09T12:46:04.287Z,23.1
2018-09-09T12:47:13.325Z,23.06
2018-09-09T12:48:21.922Z,23.11
2018-09-09T12:49:30.832Z,23.02
2018-09-09T12:50:39.482Z,23.1
2018-09-09T12:51:48.132Z,23.11
2018-09-09T12:52:56.787Z,23.18
2018-09-09T12:54:05.432Z,23.21
2018-09-09T12:55:14.090Z,23.14
2018-09-09T12:56:22.735Z,23.25
2018-09-09T12:57:31.395Z,23.2
2018-09-09T12:58:40.306Z,23.26
2018-09-09T12:59:48.960Z,23.34
2018-09-09T13:00:57.598Z,23.33
2018-09-09T13:02:06.259Z,23.29
2018-09-09T13:03:14.906Z,23.28
2018-09-09T13:04:23.558Z,23.17
2018-09-09T13:05:32.463Z,23.18
2018-09-09T13:06:41.115Z,23.04
2018-09-09T13:07:49.769Z,22.99
2018-09-09T13:08:58.422Z,22.86
2018-09-09T13:10:07.340Z,22.83
2018-09-09T13:11:16.242Z,22.8
2018-09-09T13:12:24.895Z,22.74
2018-09-09T13:13:33.541Z,22.68
2018-09-09T13:14:42.200Z,22.68
2018-09-09T13:15:50.844Z,22.73
2018-09-09T13:16:59.502Z,22.71
2018-09-09T13:18:08.150Z,22.89
2018-09-09T13:19:16.810Z,22.95
2018-09-09T13:20:25.451Z,23.01
2018-09-09T13:21:34.104Z,22.96
2018-09-09T13:22:42.752Z,23.06
2018-09-09T13:23:51.414Z,23.11
2018-09-09T13:25:00.061Z,23.17
2018-09-09T13:26:08.711Z,23.07
2018-09-09T13:27:17.357Z,23.02
2018-09-09T13:28:26.004Z,23.14
2018-09-09T13:29:34.663Z,23.04
2018-09-09T13:30:43.312Z,23.17
2018-09-09T13:31:51.954Z,23.2
2018-09-09T13:33:00.613Z,23.28
2018-09-09T13:34:09.254Z,23.32
2018-09-09T13:35:17.910Z,23.34
2018-09-09T13:36:26.555Z,23.44
2018-09-09T13:37:35.213Z,23.48
2018-09-09T13:38:43.852Z,23.48
2018-09-09T13:39:52.505Z,23.55
2018-09-09T13:41:01.152Z,23.55
2018-09-09T13:42:09.811Z,23.66
2018-09-09T13:43:18.464Z,23.63
2018-09-09T13:44:27.370Z,23.64
2018-09-09T13:45:36.018Z,23.64
2018-09-09T13:46:44.938Z,23.64
2018-09-09T13:47:53.866Z,23.59
2018-09-09T13:49:02.863Z,23.59
2018-09-09T13:50:11.520Z,23.67
2018-09-09T13:51:20.159Z,23.59
2018-09-09T13:52:29.083Z,23.59
2018-09-09T13:53:37.731Z,23.66
2018-09-09T13:54:46.925Z,23.59
2018-09-09T13:55:55.562Z,23.55
2018-09-09T13:57:04.221Z,23.58
2018-09-09T13:58:12.875Z,23.52
2018-09-09T13:59:21.524Z,23.51
2018-09-09T14:00:30.171Z,23.48
2018-09-09T14:01:38.823Z,23.45
2018-09-09T14:02:47.739Z,23.47
2018-09-09T14:03:56.469Z,23.56
2018-09-09T14:05:05.420Z,23.54
2018-09-09T14:06:14.063Z,23.77
2018-09-09T14:07:22.716Z,23.86
2018-09-09T14:08:31.358Z,24.06
2018-09-09T14:09:40.099Z,24.14
2018-09-09T14:10:48.660Z,24.24
2018-09-09T14:11:57.318Z,24.24
2018-09-09T14:13:05.961Z,24.19
2018-09-09T14:14:14.883Z,24.1
2018-09-09T14:15:23.798Z,24.06
2018-09-09T14:16:32.720Z,24
2018-09-09T14:17:41.367Z,23.86
2018-09-09T14:18:50.308Z,23.84
2018-09-09T14:19:58.957Z,23.79
2018-09-09T14:21:07.602Z,23.73
2018-09-09T14:22:16.334Z,23.59
2018-09-09T14:23:24.903Z,23.58
2018-09-09T14:24:33.562Z,23.49
2018-09-09T14:25:42.206Z,23.44
2018-09-09T14:26:50.861Z,23.32
2018-09-09T14:28:00.123Z,23.28
2018-09-09T14:29:09.110Z,23.26
2018-09-09T14:30:17.757Z,23.26
2018-09-09T14:31:26.409Z,23.29
2018-09-09T14:32:35.064Z,23.4
2018-09-09T14:33:43.713Z,23.51
2018-09-09T14:34:52.360Z,23.55
2018-09-09T14:36:01.012Z,23.59
2018-09-09T14:37:09.659Z,23.51
2018-09-09T14:38:18.311Z,23.48
2018-09-09T14:39:26.966Z,23.52
2018-09-09T14:40:35.621Z,23.49
2018-09-09T14:41:44.271Z,23.58
2018-09-09T14:42:52.917Z,23.58
2018-09-09T14:44:01.572Z,23.55
2018-09-09T14:45:10.223Z,23.59
2018-09-09T14:46:18.872Z,23.66
2018-09-09T14:47:27.783Z,23.66
2018-09-09T14:48:36.434Z,23.62